EKKL weather

Kalundborg Airport
Kalundborg, Zealand, Denmark

Public forecast

Using degrees Celsius for public forecast. Weather courtesy of forecast.io.

METAR (pilot weather report)

Closest report is Copenhagen Roskilde Airport, 30.6 nm (56.8 km) ESE. Retrieved 2019/07/22 10:20 UTC (35 minutes ago):

EKRK 221020Z AUTO 26009KT 220V290 9999 BKN025/// 20/13 Q1021

TAF (pilot weather forecast)

Closest forecast is Aarhus Airport, 41.8 nm (77.4 km) NNW. Retrieved 2019/07/22 06:31 UTC (4 hours ago):

TAF EKAH 220504Z 2206/2306 25008KT 9999 SCT020 BECMG 2216/2218 2500 BR RADZ BKN006 TEMPO 2218/2221 4000 -RADZ BKN010 BECMG 2221/2223 -RADZ BKN015 TEMPO 2223/2306 4000 BR